sensor_id;sensor_type;location;lat;lon;timestamp;pressure;altitude;pressure_sealevel;temperature;humidity
9822;BME280;4950;46.042;14.472;2024-03-22T00:02:09;98451.00;;;11.26;92.56
9822;BME280;4950;46.042;14.472;2024-03-22T00:04:37;98455.06;;;11.21;93.48
9822;BME280;4950;46.042;14.472;2024-03-22T00:07:03;98450.19;;;11.18;93.43
9822;BME280;4950;46.042;14.472;2024-03-22T00:09:30;98445.78;;;11.26;93.69
9822;BME280;4950;46.042;14.472;2024-03-22T00:11:55;98448.88;;;11.30;93.73
9822;BME280;4950;46.042;14.472;2024-03-22T00:14:24;98443.69;;;11.30;94.59
9822;BME280;4950;46.042;14.472;2024-03-22T00:16:50;98443.06;;;11.20;95.74
9822;BME280;4950;46.042;14.472;2024-03-22T00:19:16;98446.78;;;11.17;96.28
9822;BME280;4950;46.042;14.472;2024-03-22T00:21:42;98445.50;;;11.21;96.26
9822;BME280;4950;46.042;14.472;2024-03-22T00:24:09;98438.84;;;11.27;95.73
9822;BME280;4950;46.042;14.472;2024-03-22T00:26:34;98439.28;;;11.31;95.08
9822;BME280;4950;46.042;14.472;2024-03-22T00:29:01;98438.31;;;11.32;95.14
9822;BME280;4950;46.042;14.472;2024-03-22T00:31:28;98447.28;;;11.29;95.00
9822;BME280;4950;46.042;14.472;2024-03-22T00:33:55;98441.09;;;11.30;95.49
9822;BME280;4950;46.042;14.472;2024-03-22T00:36:21;98437.69;;;11.30;95.46
9822;BME280;4950;46.042;14.472;2024-03-22T00:38:47;98439.97;;;11.33;95.30
9822;BME280;4950;46.042;14.472;2024-03-22T00:41:13;98433.16;;;11.23;95.94
9822;BME280;4950;46.042;14.472;2024-03-22T00:43:40;98433.31;;;11.14;96.44
9822;BME280;4950;46.042;14.472;2024-03-22T00:46:05;98428.91;;;11.14;96.90
9822;BME280;4950;46.042;14.472;2024-03-22T00:48:34;98427.47;;;11.12;97.17
9822;BME280;4950;46.042;14.472;2024-03-22T00:51:00;98428.09;;;11.22;96.87
9822;BME280;4950;46.042;14.472;2024-03-22T00:53:27;98426.00;;;11.17;96.89
9822;BME280;4950;46.042;14.472;2024-03-22T00:55:54;98432.97;;;11.17;96.76
9822;BME280;4950;46.042;14.472;2024-03-22T00:58:21;98436.41;;;11.17;97.53
9822;BME280;4950;46.042;14.472;2024-03-22T01:00:47;98436.72;;;11.14;97.30
9822;BME280;4950;46.042;14.472;2024-03-22T01:03:14;98435.09;;;11.05;97.36
9822;BME280;4950;46.042;14.472;2024-03-22T01:05:41;98429.91;;;11.05;97.41
9822;BME280;4950;46.042;14.472;2024-03-22T01:08:08;98439.00;;;11.01;97.39
9822;BME280;4950;46.042;14.472;2024-03-22T01:10:33;98442.72;;;11.06;97.11
9822;BME280;4950;46.042;14.472;2024-03-22T01:13:00;98441.28;;;11.12;97.04
9822;BME280;4950;46.042;14.472;2024-03-22T01:15:26;98444.19;;;11.09;96.47
9822;BME280;4950;46.042;14.472;2024-03-22T01:17:53;98450.22;;;11.01;97.44
9822;BME280;4950;46.042;14.472;2024-03-22T01:20:19;98454.28;;;11.04;97.57
9822;BME280;4950;46.042;14.472;2024-03-22T01:22:47;98457.66;;;11.04;97.85
9822;BME280;4950;46.042;14.472;2024-03-22T01:25:12;98463.38;;;11.00;98.86
9822;BME280;4950;46.042;14.472;2024-03-22T01:27:39;98459.78;;;11.09;98.25
9822;BME280;4950;46.042;14.472;2024-03-22T01:30:06;98466.75;;;11.00;98.68
9822;BME280;4950;46.042;14.472;2024-03-22T01:32:34;98457.69;;;10.96;98.85
9822;BME280;4950;46.042;14.472;2024-03-22T01:35:00;98450.69;;;11.05;98.32
9822;BME280;4950;46.042;14.472;2024-03-22T01:37:26;98445.97;;;11.00;98.26
9822;BME280;4950;46.042;14.472;2024-03-22T01:39:53;98451.50;;;10.89;98.20
9822;BME280;4950;46.042;14.472;2024-03-22T01:42:20;98454.56;;;11.01;98.30
9822;BME280;4950;46.042;14.472;2024-03-22T01:44:46;98455.88;;;11.05;98.55
9822;BME280;4950;46.042;14.472;2024-03-22T01:47:12;98457.19;;;10.93;98.86
9822;BME280;4950;46.042;14.472;2024-03-22T01:49:38;98452.78;;;10.85;99.39
9822;BME280;4950;46.042;14.472;2024-03-22T01:52:08;98458.63;;;10.87;99.70
9822;BME280;4950;46.042;14.472;2024-03-22T01:54:34;98452.28;;;10.90;99.85
9822;BME280;4950;46.042;14.472;2024-03-22T01:57:02;98446.00;;;10.84;98.82
9822;BME280;4950;46.042;14.472;2024-03-22T01:59:28;98448.09;;;10.89;99.53
9822;BME280;4950;46.042;14.472;2024-03-22T02:01:55;98448.41;;;10.85;99.74
9822;BME280;4950;46.042;14.472;2024-03-22T02:04:21;98437.38;;;10.92;100.00
9822;BME280;4950;46.042;14.472;2024-03-22T02:06:48;98445.16;;;10.75;100.00
9822;BME280;4950;46.042;14.472;2024-03-22T02:09:14;98449.06;;;10.71;100.00
9822;BME280;4950;46.042;14.472;2024-03-22T02:11:41;98444.16;;;10.60;99.90
9822;BME280;4950;46.042;14.472;2024-03-22T02:14:09;98447.88;;;10.49;100.00
9822;BME280;4950;46.042;14.472;2024-03-22T02:16:36;98455.19;;;10.11;100.00
9822;BME280;4950;46.042;14.472;2024-03-22T02:19:01;98458.81;;;9.84;100.00
9822;BME280;4950;46.042;14.472;2024-03-22T02:21:28;98449.75;;;9.54;100.00
9822;BME280;4950;46.042;14.472;2024-03-22T02:23:55;98455.69;;;9.46;100.00
9822;BME280;4950;46.042;14.472;2024-03-22T02:26:22;98455.19;;;9.42;100.00
9822;BME280;4950;46.042;14.472;2024-03-22T02:28:47;98452.78;;;9.23;100.00
9822;BME280;4950;46.042;14.472;2024-03-22T02:31:14;98456.28;;;9.14;100.00
9822;BME280;4950;46.042;14.472;2024-03-22T02:33:40;98452.22;;;9.11;100.00
9822;BME280;4950;46.042;14.472;2024-03-22T02:36:07;98461.09;;;9.08;100.00
9822;BME280;4950;46.042;14.472;2024-03-22T02:38:32;98459.53;;;9.16;100.00
9822;BME280;4950;46.042;14.472;2024-03-22T02:41:00;98462.03;;;9.25;100.00
9822;BME280;4950;46.042;14.472;2024-03-22T02:43:26;98463.19;;;9.31;100.00
9822;BME280;4950;46.042;14.472;2024-03-22T02:45:53;98452.44;;;9.44;100.00
9822;BME280;4950;46.042;14.472;2024-03-22T02:48:19;98451.03;;;9.49;100.00
9822;BME280;4950;46.042;14.472;2024-03-22T02:50:46;98451.69;;;9.52;100.00
9822;BME280;4950;46.042;14.472;2024-03-22T02:53:11;98457.81;;;9.51;100.00
9822;BME280;4950;46.042;14.472;2024-03-22T02:55:38;98454.59;;;9.57;100.00
9822;BME280;4950;46.042;14.472;2024-03-22T02:58:06;98454.56;;;9.48;100.00
9822;BME280;4950;46.042;14.472;2024-03-22T03:00:35;98446.13;;;9.46;100.00
9822;BME280;4950;46.042;14.472;2024-03-22T03:03:01;98453.63;;;9.49;100.00
9822;BME280;4950;46.042;14.472;2024-03-22T03:05:28;98443.16;;;9.59;100.00
9822;BME280;4950;46.042;14.472;2024-03-22T03:07:53;98444.66;;;9.70;100.00
9822;BME280;4950;46.042;14.472;2024-03-22T03:10:20;98453.28;;;9.79;100.00
9822;BME280;4950;46.042;14.472;2024-03-22T03:12:46;98446.97;;;9.81;100.00
9822;BME280;4950;46.042;14.472;2024-03-22T03:15:15;98445.69;;;9.85;100.00
9822;BME280;4950;46.042;14.472;2024-03-22T03:17:41;98451.53;;;9.87;100.00
9822;BME280;4950;46.042;14.472;2024-03-22T03:20:08;98448.31;;;9.94;100.00
9822;BME280;4950;46.042;14.472;2024-03-22T03:22:35;98452.41;;;9.96;100.00
9822;BME280;4950;46.042;14.472;2024-03-22T03:25:03;98453.19;;;9.97;100.00
9822;BME280;4950;46.042;14.472;2024-03-22T03:27:29;98457.88;;;9.93;100.00
9822;BME280;4950;46.042;14.472;2024-03-22T03:29:56;98451.09;;;9.92;100.00
9822;BME280;4950;46.042;14.472;2024-03-22T03:32:23;98457.09;;;9.93;100.00
9822;BME280;4950;46.042;14.472;2024-03-22T03:34:50;98451.91;;;9.93;100.00
9822;BME280;4950;46.042;14.472;2024-03-22T03:37:16;98451.09;;;9.92;100.00
9822;BME280;4950;46.042;14.472;2024-03-22T03:39:42;98459.03;;;9.91;100.00
9822;BME280;4950;46.042;14.472;2024-03-22T03:42:08;98453.69;;;9.92;100.00
9822;BME280;4950;46.042;14.472;2024-03-22T03:44:35;98459.31;;;9.87;100.00
9822;BME280;4950;46.042;14.472;2024-03-22T03:47:01;98459.50;;;9.60;100.00
9822;BME280;4950;46.042;14.472;2024-03-22T03:49:30;98460.16;;;9.62;100.00
9822;BME280;4950;46.042;14.472;2024-03-22T03:51:55;98462.72;;;9.54;100.00
9822;BME280;4950;46.042;14.472;2024-03-22T03:54:22;98462.75;;;9.62;100.00
9822;BME280;4950;46.042;14.472;2024-03-22T03:56:48;98456.94;;;9.68;100.00
9822;BME280;4950;46.042;14.472;2024-03-22T03:59:14;98458.84;;;9.58;100.00
9822;BME280;4950;46.042;14.472;2024-03-22T04:01:40;98457.59;;;9.70;100.00
9822;BME280;4950;46.042;14.472;2024-03-22T04:04:07;98453.91;;;9.73;100.00
9822;BME280;4950;46.042;14.472;2024-03-22T04:06:34;98454.72;;;9.73;100.00
9822;BME280;4950;46.042;14.472;2024-03-22T04:09:01;98452.00;;;9.83;100.00
9822;BME280;4950;46.042;14.472;2024-03-22T04:11:28;98447.47;;;9.85;100.00
9822;BME280;4950;46.042;14.472;2024-03-22T04:13:55;98447.28;;;9.78;100.00
9822;BME280;4950;46.042;14.472;2024-03-22T04:16:20;98441.28;;;9.78;100.00
9822;BME280;4950;46.042;14.472;2024-03-22T04:18:47;98438.06;;;9.84;100.00
9822;BME280;4950;46.042;14.472;2024-03-22T04:21:13;98438.41;;;9.89;100.00
9822;BME280;4950;46.042;14.472;2024-03-22T04:23:41;98444.91;;;9.93;100.00
9822;BME280;4950;46.042;14.472;2024-03-22T04:26:06;98446.72;;;9.93;100.00
9822;BME280;4950;46.042;14.472;2024-03-22T04:28:33;98443.09;;;9.85;100.00
9822;BME280;4950;46.042;14.472;2024-03-22T04:31:00;98445.19;;;9.82;100.00
9822;BME280;4950;46.042;14.472;2024-03-22T04:33:27;98445.50;;;9.79;100.00
9822;BME280;4950;46.042;14.472;2024-03-22T04:35:53;98448.88;;;9.71;100.00
9822;BME280;4950;46.042;14.472;2024-03-22T04:38:20;98449.97;;;9.68;100.00
9822;BME280;4950;46.042;14.472;2024-03-22T04:40:48;98454.97;;;9.62;100.00
9822;BME280;4950;46.042;14.472;2024-03-22T04:43:15;98453.63;;;9.49;100.00
9822;BME280;4950;46.042;14.472;2024-03-22T04:45:43;98469.97;;;9.50;100.00
9822;BME280;4950;46.042;14.472;2024-03-22T04:48:09;98474.03;;;9.53;100.00
9822;BME280;4950;46.042;14.472;2024-03-22T04:50:35;98459.31;;;9.53;100.00
9822;BME280;4950;46.042;14.472;2024-03-22T04:53:01;98462.66;;;9.45;100.00
9822;BME280;4950;46.042;14.472;2024-03-22T04:55:28;98462.66;;;9.45;100.00
9822;BME280;4950;46.042;14.472;2024-03-22T04:57:55;98452.34;;;9.54;100.00
9822;BME280;4950;46.042;14.472;2024-03-22T05:00:22;98459.50;;;9.60;100.00
9822;BME280;4950;46.042;14.472;2024-03-22T05:02:50;98466.66;;;9.66;100.00
9822;BME280;4950;46.042;14.472;2024-03-22T05:05:17;98457.41;;;9.63;100.00
9822;BME280;4950;46.042;14.472;2024-03-22T05:07:42;98455.16;;;9.68;100.00
9822;BME280;4950;46.042;14.472;2024-03-22T05:10:09;98451.81;;;9.76;100.00
9822;BME280;4950;46.042;14.472;2024-03-22T05:12:35;98457.28;;;9.65;99.24
9822;BME280;4950;46.042;14.472;2024-03-22T05:15:05;98450.09;;;9.59;98.70
9822;BME280;4950;46.042;14.472;2024-03-22T05:17:31;98449.97;;;9.68;99.27
9822;BME280;4950;46.042;14.472;2024-03-22T05:19:58;98457.28;;;9.65;98.47
9822;BME280;4950;46.042;14.472;2024-03-22T05:22:24;98461.63;;;9.64;99.69
9822;BME280;4950;46.042;14.472;2024-03-22T05:24:51;98470.72;;;9.68;99.14
9822;BME280;4950;46.042;14.472;2024-03-22T05:27:17;98471.22;;;9.72;99.10
9822;BME280;4950;46.042;14.472;2024-03-22T05:29:43;98482.47;;;9.81;98.23
9822;BME280;4950;46.042;14.472;2024-03-22T05:32:11;98490.53;;;9.78;97.84
9822;BME280;4950;46.042;14.472;2024-03-22T05:34:38;98487.03;;;9.87;98.67
9822;BME280;4950;46.042;14.472;2024-03-22T05:37:04;98478.09;;;9.81;98.54
9822;BME280;4950;46.042;14.472;2024-03-22T05:39:30;98483.56;;;9.78;99.03
9822;BME280;4950;46.042;14.472;2024-03-22T05:41:56;98486.66;;;9.82;98.69
9822;BME280;4950;46.042;14.472;2024-03-22T05:44:23;98494.78;;;9.79;98.94
9822;BME280;4950;46.042;14.472;2024-03-22T05:46:48;98494.91;;;9.77;99.54
9822;BME280;4950;46.042;14.472;2024-03-22T05:49:17;98497.38;;;9.79;99.21
9822;BME280;4950;46.042;14.472;2024-03-22T05:51:42;98499.97;;;9.79;99.54
9822;BME280;4950;46.042;14.472;2024-03-22T05:54:09;98492.22;;;9.87;99.12
9822;BME280;4950;46.042;14.472;2024-03-22T05:56:35;98497.78;;;9.92;98.76
9822;BME280;4950;46.042;14.472;2024-03-22T05:59:02;98493.50;;;9.83;99.10
9822;BME280;4950;46.042;14.472;2024-03-22T06:01:28;98498.22;;;9.87;99.28
9822;BME280;4950;46.042;14.472;2024-03-22T06:03:54;98492.06;;;9.88;99.11
9822;BME280;4950;46.042;14.472;2024-03-22T06:06:22;98499.69;;;9.90;99.32
9822;BME280;4950;46.042;14.472;2024-03-22T06:08:50;98501.34;;;9.99;98.37
9822;BME280;4950;46.042;14.472;2024-03-22T06:11:19;98500.53;;;9.99;98.71
9822;BME280;4950;46.042;14.472;2024-03-22T06:13:45;98501.81;;;9.95;98.32
9822;BME280;4950;46.042;14.472;2024-03-22T06:16:11;98503.28;;;9.97;98.19
9822;BME280;4950;46.042;14.472;2024-03-22T06:18:37;98497.13;;;9.90;99.69
9822;BME280;4950;46.042;14.472;2024-03-22T06:21:04;98497.41;;;9.87;99.74
9822;BME280;4950;46.042;14.472;2024-03-22T06:23:31;98504.19;;;9.88;100.00
9822;BME280;4950;46.042;14.472;2024-03-22T06:25:58;98500.50;;;9.91;99.95
9822;BME280;4950;46.042;14.472;2024-03-22T06:28:27;98490.28;;;9.89;99.78
9822;BME280;4950;46.042;14.472;2024-03-22T06:30:54;98494.41;;;9.74;100.00
9822;BME280;4950;46.042;14.472;2024-03-22T06:33:20;98499.03;;;9.62;100.00
9822;BME280;4950;46.042;14.472;2024-03-22T06:35:47;98503.53;;;9.52;100.00
9822;BME280;4950;46.042;14.472;2024-03-22T06:38:13;98497.00;;;9.47;100.00
9822;BME280;4950;46.042;14.472;2024-03-22T06:40:41;98493.16;;;9.52;100.00
9822;BME280;4950;46.042;14.472;2024-03-22T06:43:06;98497.72;;;9.58;100.00
9822;BME280;4950;46.042;14.472;2024-03-22T06:45:34;98503.72;;;9.58;100.00
9822;BME280;4950;46.042;14.472;2024-03-22T06:47:59;98501.78;;;9.60;100.00
9822;BME280;4950;46.042;14.472;2024-03-22T06:50:26;98494.22;;;9.67;100.00
9822;BME280;4950;46.042;14.472;2024-03-22T06:52:52;98501.69;;;9.70;100.00
9822;BME280;4950;46.042;14.472;2024-03-22T06:55:19;98494.41;;;9.74;100.00
9822;BME280;4950;46.042;14.472;2024-03-22T06:57:47;98503.16;;;9.73;100.00
9822;BME280;4950;46.042;14.472;2024-03-22T07:00:14;98499.13;;;9.78;100.00
9822;BME280;4950;46.042;14.472;2024-03-22T07:02:40;98497.22;;;9.80;100.00
9822;BME280;4950;46.042;14.472;2024-03-22T07:05:08;98504.63;;;9.75;100.00
9822;BME280;4950;46.042;14.472;2024-03-22T07:07:34;98493.34;;;9.84;100.00
9822;BME280;4950;46.042;14.472;2024-03-22T07:10:01;98495.09;;;9.84;100.00
9822;BME280;4950;46.042;14.472;2024-03-22T07:12:27;98509.19;;;9.81;100.00
9822;BME280;4950;46.042;14.472;2024-03-22T07:14:55;98490.59;;;9.86;100.00
9822;BME280;4950;46.042;14.472;2024-03-22T07:17:20;98499.84;;;9.88;100.00
9822;BME280;4950;46.042;14.472;2024-03-22T07:19:49;98503.53;;;9.86;100.00
9822;BME280;4950;46.042;14.472;2024-03-22T07:22:16;98507.16;;;9.93;99.63
9822;BME280;4950;46.042;14.472;2024-03-22T07:24:43;98497.25;;;9.88;98.96
9822;BME280;4950;46.042;14.472;2024-03-22T07:27:08;98496.59;;;9.86;99.84
9822;BME280;4950;46.042;14.472;2024-03-22T07:29:35;98502.97;;;9.92;99.34
9822;BME280;4950;46.042;14.472;2024-03-22T07:32:03;98502.63;;;9.95;99.86
9822;BME280;4950;46.042;14.472;2024-03-22T07:34:30;98506.09;;;10.04;99.08
9822;BME280;4950;46.042;14.472;2024-03-22T07:36:55;98501.22;;;10.09;97.78
9822;BME280;4950;46.042;14.472;2024-03-22T07:39:22;98504.81;;;10.08;98.18
9822;BME280;4950;46.042;14.472;2024-03-22T07:41:49;98498.31;;;10.04;98.65
9822;BME280;4950;46.042;14.472;2024-03-22T07:44:16;98506.41;;;10.09;98.25
9822;BME280;4950;46.042;14.472;2024-03-22T07:46:43;98503.06;;;10.17;97.86
9822;BME280;4950;46.042;14.472;2024-03-22T07:49:11;98499.00;;;10.14;97.65
9822;BME280;4950;46.042;14.472;2024-03-22T07:51:37;98492.66;;;10.17;96.97
9822;BME280;4950;46.042;14.472;2024-03-22T07:54:04;98494.19;;;10.27;97.55
9822;BME280;4950;46.042;14.472;2024-03-22T07:56:31;98491.59;;;10.27;96.92
9822;BME280;4950;46.042;14.472;2024-03-22T07:58:56;98493.97;;;10.21;97.31
9822;BME280;4950;46.042;14.472;2024-03-22T08:01:24;98494.75;;;10.13;97.95
9822;BME280;4950;46.042;14.472;2024-03-22T08:03:49;98499.94;;;10.13;98.78
9822;BME280;4950;46.042;14.472;2024-03-22T08:06:17;98499.28;;;10.11;98.62
9822;BME280;4950;46.042;14.472;2024-03-22T08:08:43;98505.50;;;10.18;98.76
9822;BME280;4950;46.042;14.472;2024-03-22T08:11:10;98500.19;;;10.28;98.27
9822;BME280;4950;46.042;14.472;2024-03-22T08:13:36;98496.50;;;10.39;98.17
9822;BME280;4950;46.042;14.472;2024-03-22T08:16:04;98501.09;;;10.45;97.63
9822;BME280;4950;46.042;14.472;2024-03-22T08:18:31;98505.16;;;10.47;97.86
9822;BME280;4950;46.042;14.472;2024-03-22T08:20:58;98505.16;;;10.47;97.30
9822;BME280;4950;46.042;14.472;2024-03-22T08:23:25;98507.91;;;10.46;96.44
9822;BME280;4950;46.042;14.472;2024-03-22T08:25:52;98507.25;;;10.44;97.72
9822;BME280;4950;46.042;14.472;2024-03-22T08:28:18;98519.28;;;10.53;97.36
9822;BME280;4950;46.042;14.472;2024-03-22T08:30:45;98511.81;;;10.58;96.82
9822;BME280;4950;46.042;14.472;2024-03-22T08:33:11;98510.06;;;10.59;97.33
9822;BME280;4950;46.042;14.472;2024-03-22T08:35:38;98514.75;;;10.63;97.08
9822;BME280;4950;46.042;14.472;2024-03-22T08:38:04;98510.56;;;10.71;96.69
9822;BME280;4950;46.042;14.472;2024-03-22T08:40:36;98515.56;;;10.64;96.74
9822;BME280;4950;46.042;14.472;2024-03-22T08:43:03;98507.47;;;10.75;96.18
9822;BME280;4950;46.042;14.472;2024-03-22T08:45:30;98503.94;;;10.76;96.10
9822;BME280;4950;46.042;14.472;2024-03-22T08:47:55;98505.03;;;10.74;96.13
9822;BME280;4950;46.042;14.472;2024-03-22T08:50:22;98510.56;;;10.71;96.26
9822;BME280;4950;46.042;14.472;2024-03-22T08:52:48;98506.03;;;10.73;96.31
9822;BME280;4950;46.042;14.472;2024-03-22T08:55:14;98499.53;;;10.77;95.34
9822;BME280;4950;46.042;14.472;2024-03-22T08:57:42;98502.13;;;10.77;95.64
9822;BME280;4950;46.042;14.472;2024-03-22T09:00:11;98506.03;;;10.81;96.13
9822;BME280;4950;46.042;14.472;2024-03-22T09:02:37;98499.03;;;10.81;95.13
9822;BME280;4950;46.042;14.472;2024-03-22T09:05:05;98495.63;;;10.73;95.29
9822;BME280;4950;46.042;14.472;2024-03-22T09:07:31;98500.03;;;10.80;95.96
9822;BME280;4950;46.042;14.472;2024-03-22T09:09:57;98494.66;;;10.74;95.81
9822;BME280;4950;46.042;14.472;2024-03-22T09:12:23;98492.25;;;10.80;96.95
9822;BME280;4950;46.042;14.472;2024-03-22T09:14:51;98490.31;;;10.91;96.11
9822;BME280;4950;46.042;14.472;2024-03-22T09:17:17;98479.09;;;10.98;96.01
9822;BME280;4950;46.042;14.472;2024-03-22T09:19:44;98486.59;;;11.10;95.82
9822;BME280;4950;46.042;14.472;2024-03-22T09:22:09;98470.50;;;11.22;94.73
9822;BME280;4950;46.042;14.472;2024-03-22T09:24:36;98469.16;;;11.51;95.17
9822;BME280;4950;46.042;14.472;2024-03-22T09:27:02;98459.16;;;11.79;95.56
9822;BME280;4950;46.042;14.472;2024-03-22T09:29:34;98457.47;;;12.11;93.73
9822;BME280;4950;46.042;14.472;2024-03-22T09:32:01;98452.22;;;12.19;90.14
9822;BME280;4950;46.042;14.472;2024-03-22T09:34:28;98455.94;;;12.56;89.41
9822;BME280;4950;46.042;14.472;2024-03-22T09:36:55;98447.19;;;12.72;86.90
9822;BME280;4950;46.042;14.472;2024-03-22T09:39:21;98446.72;;;12.92;86.81
9822;BME280;4950;46.042;14.472;2024-03-22T09:41:47;98443.41;;;13.21;85.96
9822;BME280;4950;46.042;14.472;2024-03-22T09:44:15;98445.25;;;13.35;85.28
9822;BME280;4950;46.042;14.472;2024-03-22T09:46:43;98440.66;;;13.37;85.00
9822;BME280;4950;46.042;14.472;2024-03-22T09:49:12;98441.38;;;13.61;82.96
9822;BME280;4950;46.042;14.472;2024-03-22T09:51:39;98423.69;;;13.71;82.30
9822;BME280;4950;46.042;14.472;2024-03-22T09:54:06;98431.25;;;13.81;80.99
9822;BME280;4950;46.042;14.472;2024-03-22T09:56:32;98422.31;;;13.90;80.74
9822;BME280;4950;46.042;14.472;2024-03-22T09:59:00;98414.31;;;14.28;81.22
9822;BME280;4950;46.042;14.472;2024-03-22T10:01:26;98413.59;;;14.71;79.02
9822;BME280;4950;46.042;14.472;2024-03-22T10:03:52;98408.53;;;14.91;78.32
9822;BME280;4950;46.042;14.472;2024-03-22T10:06:21;98401.56;;;15.33;76.90
9822;BME280;4950;46.042;14.472;2024-03-22T10:08:48;98393.00;;;15.46;75.50
9822;BME280;4950;46.042;14.472;2024-03-22T10:11:14;98383.75;;;15.78;74.34
9822;BME280;4950;46.042;14.472;2024-03-22T10:13:40;98384.97;;;15.89;69.85
9822;BME280;4950;46.042;14.472;2024-03-22T10:16:06;98373.53;;;16.03;71.25
9822;BME280;4950;46.042;14.472;2024-03-22T10:18:33;98375.41;;;16.16;69.96
9822;BME280;4950;46.042;14.472;2024-03-22T10:21:00;98375.81;;;16.26;69.11
9822;BME280;4950;46.042;14.472;2024-03-22T10:23:29;98371.22;;;16.35;66.25
9822;BME280;4950;46.042;14.472;2024-03-22T10:25:56;98364.75;;;16.37;68.28
9822;BME280;4950;46.042;14.472;2024-03-22T10:28:23;98359.38;;;16.92;66.66
9822;BME280;4950;46.042;14.472;2024-03-22T10:30:51;98362.56;;;16.81;65.26
9822;BME280;4950;46.042;14.472;2024-03-22T10:33:18;98359.38;;;16.99;65.58
9822;BME280;4950;46.042;14.472;2024-03-22T10:35:45;98351.94;;;17.61;63.87
9822;BME280;4950;46.042;14.472;2024-03-22T10:38:12;98350.88;;;17.89;63.19
9822;BME280;4950;46.042;14.472;2024-03-22T10:40:40;98340.59;;;18.19;60.63
9822;BME280;4950;46.042;14.472;2024-03-22T10:43:10;98338.41;;;18.48;60.82
9822;BME280;4950;46.042;14.472;2024-03-22T10:45:37;98337.56;;;19.04;58.84
9822;BME280;4950;46.042;14.472;2024-03-22T10:48:09;98332.75;;;19.20;55.60
9822;BME280;4950;46.042;14.472;2024-03-22T10:50:38;98324.22;;;19.54;54.98
9822;BME280;4950;46.042;14.472;2024-03-22T10:53:07;98322.91;;;19.64;52.69
9822;BME280;4950;46.042;14.472;2024-03-22T10:55:37;98318.97;;;19.73;52.27
9822;BME280;4950;46.042;14.472;2024-03-22T10:58:06;98317.78;;;19.87;52.32
9822;BME280;4950;46.042;14.472;2024-03-22T11:00:33;98314.63;;;20.09;47.70
9822;BME280;4950;46.042;14.472;2024-03-22T11:03:02;98310.00;;;20.46;46.40
9822;BME280;4950;46.042;14.472;2024-03-22T11:05:28;98303.41;;;20.79;44.99
9822;BME280;4950;46.042;14.472;2024-03-22T11:07:59;98298.50;;;20.59;44.57
9822;BME280;4950;46.042;14.472;2024-03-22T11:10:28;98291.28;;;20.66;44.07
9822;BME280;4950;46.042;14.472;2024-03-22T11:12:55;98284.72;;;20.81;43.07
9822;BME280;4950;46.042;14.472;2024-03-22T11:15:23;98274.56;;;21.25;44.65
9822;BME280;4950;46.042;14.472;2024-03-22T11:17:49;98270.34;;;21.12;41.96
9822;BME280;4950;46.042;14.472;2024-03-22T11:20:15;98266.88;;;21.23;42.87
9822;BME280;4950;46.042;14.472;2024-03-22T11:22:42;98267.88;;;21.34;41.45
9822;BME280;4950;46.042;14.472;2024-03-22T11:25:08;98255.03;;;21.26;42.21
9822;BME280;4950;46.042;14.472;2024-03-22T11:27:35;98249.38;;;21.34;40.73
9822;BME280;4950;46.042;14.472;2024-03-22T11:30:01;98251.31;;;20.98;40.55
9822;BME280;4950;46.042;14.472;2024-03-22T11:32:30;98254.19;;;20.97;41.47
9822;BME280;4950;46.042;14.472;2024-03-22T11:34:56;98250.31;;;21.28;42.43
9822;BME280;4950;46.042;14.472;2024-03-22T11:37:23;98243.91;;;21.64;40.96
9822;BME280;4950;46.042;14.472;2024-03-22T11:39:48;98242.28;;;21.92;42.54
9822;BME280;4950;46.042;14.472;2024-03-22T11:42:16;98238.53;;;22.22;42.60
9822;BME280;4950;46.042;14.472;2024-03-22T11:44:43;98233.53;;;22.59;40.61
9822;BME280;4950;46.042;14.472;2024-03-22T11:47:10;98221.72;;;22.84;39.70
9822;BME280;4950;46.042;14.472;2024-03-22T11:49:37;98221.03;;;22.94;37.96
9822;BME280;4950;46.042;14.472;2024-03-22T11:52:04;98220.25;;;23.15;39.78
9822;BME280;4950;46.042;14.472;2024-03-22T11:54:33;98217.41;;;22.78;33.95
9822;BME280;4950;46.042;14.472;2024-03-22T11:57:00;98207.56;;;22.73;34.29
9822;BME280;4950;46.042;14.472;2024-03-22T11:59:25;98196.84;;;22.85;32.77
9822;BME280;4950;46.042;14.472;2024-03-22T12:01:52;98190.38;;;22.98;33.36
9822;BME280;4950;46.042;14.472;2024-03-22T12:04:19;98190.00;;;22.89;32.68
9822;BME280;4950;46.042;14.472;2024-03-22T12:06:47;98175.53;;;23.19;32.31
9822;BME280;4950;46.042;14.472;2024-03-22T12:09:13;98176.56;;;23.40;30.65
9822;BME280;4950;46.042;14.472;2024-03-22T12:11:40;98175.34;;;23.53;30.65
9822;BME280;4950;46.042;14.472;2024-03-22T12:14:06;98164.19;;;23.78;31.07
9822;BME280;4950;46.042;14.472;2024-03-22T12:16:33;98165.22;;;23.77;31.15
9822;BME280;4950;46.042;14.472;2024-03-22T12:18:58;98175.84;;;23.77;30.27
9822;BME280;4950;46.042;14.472;2024-03-22T12:21:25;98160.19;;;23.48;30.67
9822;BME280;4950;46.042;14.472;2024-03-22T12:23:52;98154.81;;;23.70;30.65
9822;BME280;4950;46.042;14.472;2024-03-22T12:26:19;98157.31;;;23.50;31.65
9822;BME280;4950;46.042;14.472;2024-03-22T12:28:45;98147.56;;;23.55;32.30
9822;BME280;4950;46.042;14.472;2024-03-22T12:31:11;98141.75;;;23.91;32.00
9822;BME280;4950;46.042;14.472;2024-03-22T12:33:37;98136.84;;;24.10;31.95
9822;BME280;4950;46.042;14.472;2024-03-22T12:36:04;98140.22;;;24.00;31.39
9822;BME280;4950;46.042;14.472;2024-03-22T12:38:30;98137.75;;;23.88;32.24
9822;BME280;4950;46.042;14.472;2024-03-22T12:40:58;98132.25;;;24.00;32.85
9822;BME280;4950;46.042;14.472;2024-03-22T12:43:24;98123.47;;;24.37;32.30
9822;BME280;4950;46.042;14.472;2024-03-22T12:45:51;98119.38;;;24.61;31.73
9822;BME280;4950;46.042;14.472;2024-03-22T12:48:17;98117.53;;;24.72;30.97
9822;BME280;4950;46.042;14.472;2024-03-22T12:50:44;98106.16;;;24.82;30.82
9822;BME280;4950;46.042;14.472;2024-03-22T12:53:10;98099.81;;;24.93;30.39
9822;BME280;4950;46.042;14.472;2024-03-22T12:55:37;98097.72;;;25.06;31.03
9822;BME280;4950;46.042;14.472;2024-03-22T12:58:04;98090.53;;;25.06;30.21
9822;BME280;4950;46.042;14.472;2024-03-22T13:00:31;98092.94;;;25.13;29.33
9822;BME280;4950;46.042;14.472;2024-03-22T13:02:59;98088.97;;;25.20;29.13
9822;BME280;4950;46.042;14.472;2024-03-22T13:05:25;98083.91;;;25.19;27.50
9822;BME280;4950;46.042;14.472;2024-03-22T13:07:52;98075.94;;;25.19;26.24
9822;BME280;4950;46.042;14.472;2024-03-22T13:10:19;98077.28;;;25.21;25.42